createdAt,value
2018-02-14T00:01:32.539Z,11.03
2018-02-14T00:03:59.932Z,12.33
2018-02-14T00:06:28.072Z,9.67
2018-02-14T00:08:55.486Z,10.10
2018-02-14T00:11:23.583Z,11.37
2018-02-14T00:13:51.927Z,10.90
2018-02-14T00:16:19.259Z,8.97
2018-02-14T00:18:47.570Z,10.20
2018-02-14T00:21:14.895Z,9.73
2018-02-14T00:23:42.315Z,9.70
2018-02-14T00:26:10.609Z,11.67
2018-02-14T00:28:38.690Z,10.87
2018-02-14T00:31:06.892Z,11.97
2018-02-14T00:33:34.288Z,12.10
2018-02-14T00:36:02.575Z,11.87
2018-02-14T00:38:30.100Z,9.73
2018-02-14T00:40:57.451Z,10.60
2018-02-14T00:43:24.808Z,9.47
2018-02-14T00:45:53.086Z,12.37
2018-02-14T00:48:20.443Z,10.13
2018-02-14T00:50:48.686Z,10.87
2018-02-14T00:53:16.055Z,9.63
2018-02-14T00:55:43.364Z,10.73
2018-02-14T00:58:11.695Z,14.00
2018-02-14T01:00:39.182Z,12.57
2018-02-14T01:03:06.664Z,12.63
2018-02-14T01:05:34.963Z,10.63
2018-02-14T01:08:02.303Z,10.13
2018-02-14T01:10:29.842Z,10.87
2018-02-14T01:12:58.255Z,10.40
2018-02-14T01:15:26.315Z,11.67
2018-02-14T01:17:53.647Z,11.93
2018-02-14T01:20:28.078Z,13.40
2018-02-14T01:22:55.387Z,10.47
2018-02-14T01:25:22.755Z,12.30
2018-02-14T01:27:50.848Z,13.60
2018-02-14T01:30:18.967Z,11.47
2018-02-14T01:32:46.441Z,12.10
2018-02-14T01:35:14.726Z,10.27
2018-02-14T01:37:42.807Z,13.90
2018-02-14T01:40:11.115Z,14.47
2018-02-14T01:42:39.209Z,10.80
2018-02-14T01:45:06.803Z,12.57
2018-02-14T01:47:34.149Z,10.80
2018-02-14T01:50:02.427Z,11.00
2018-02-14T01:52:29.759Z,10.67
2018-02-14T01:54:57.109Z,13.70
2018-02-14T01:57:24.455Z,11.90
2018-02-14T01:59:52.539Z,10.53
2018-02-14T02:02:19.839Z,11.10
2018-02-14T02:04:48.143Z,13.67
2018-02-14T02:07:16.226Z,12.43
2018-02-14T02:09:44.254Z,10.07
2018-02-14T02:12:11.699Z,10.67
2018-02-14T02:14:39.007Z,12.97
2018-02-14T02:17:06.423Z,11.87
2018-02-14T02:19:34.667Z,10.47
2018-02-14T02:22:02.064Z,12.60
2018-02-14T02:24:30.350Z,10.90
2018-02-14T02:26:58.415Z,11.40
2018-02-14T02:29:26.714Z,11.47
2018-02-14T02:31:54.794Z,9.83
2018-02-14T02:34:22.155Z,10.83
2018-02-14T02:36:50.223Z,10.57
2018-02-14T02:39:29.835Z,11.27
2018-02-14T02:41:57.909Z,12.37
2018-02-14T02:44:25.952Z,11.00
2018-02-14T02:46:54.254Z,12.03
2018-02-14T02:49:22.336Z,12.30
2018-02-14T02:51:49.792Z,12.57
2018-02-14T02:54:18.047Z,10.57
2018-02-14T02:56:45.415Z,11.30
2018-02-14T02:59:13.685Z,13.80
2018-02-14T03:01:41.800Z,13.50
2018-02-14T03:04:09.158Z,12.57
2018-02-14T03:06:36.464Z,12.40
2018-02-14T03:09:04.575Z,12.83
2018-02-14T03:11:32.659Z,11.27
2018-02-14T03:14:00.016Z,11.53
2018-02-14T03:16:27.344Z,11.67
2018-02-14T03:18:55.699Z,11.13
2018-02-14T03:21:23.835Z,15.97
2018-02-14T03:23:51.168Z,13.90
2018-02-14T03:26:18.546Z,14.80
2018-02-14T03:28:47.142Z,11.10
2018-02-14T03:31:15.247Z,11.13
2018-02-14T03:33:42.736Z,11.60
2018-02-14T03:36:10.823Z,12.43
2018-02-14T03:38:39.079Z,9.70
2018-02-14T03:41:06.435Z,15.73
2018-02-14T03:43:33.758Z,11.03
2018-02-14T03:46:01.880Z,13.53
2018-02-14T03:48:29.239Z,11.17
2018-02-14T03:50:57.518Z,11.30
2018-02-14T03:53:25.782Z,12.20
2018-02-14T03:55:54.038Z,10.47
2018-02-14T03:58:21.384Z,11.00
2018-02-14T04:00:49.454Z,10.73
2018-02-14T04:03:16.839Z,11.23
2018-02-14T04:05:45.090Z,13.50
2018-02-14T04:08:12.457Z,12.07
2018-02-14T04:10:39.990Z,11.17
2018-02-14T04:13:08.088Z,12.23
2018-02-14T04:15:35.436Z,16.60
2018-02-14T04:18:03.927Z,9.43
2018-02-14T04:20:31.316Z,12.70
2018-02-14T04:22:59.570Z,14.07
2018-02-14T04:25:27.750Z,14.20
2018-02-14T04:27:55.876Z,14.57
2018-02-14T04:30:24.259Z,14.30
2018-02-14T04:32:51.616Z,13.83
2018-02-14T04:35:19.000Z,13.67
2018-02-14T04:37:47.395Z,17.90
2018-02-14T04:40:15.483Z,14.30
2018-02-14T04:42:42.852Z,14.63
2018-02-14T04:45:10.199Z,16.10
2018-02-14T04:47:38.311Z,15.37
2018-02-14T04:50:06.567Z,20.03
2018-02-14T04:52:34.846Z,15.83
2018-02-14T04:55:02.153Z,14.53
2018-02-14T04:57:30.427Z,16.43
2018-02-14T04:59:57.727Z,15.50
2018-02-14T05:02:25.834Z,17.40
2018-02-14T05:04:53.637Z,15.10
2018-02-14T05:07:21.959Z,16.47
2018-02-14T05:09:49.321Z,17.37
2018-02-14T05:12:16.748Z,17.47
2018-02-14T05:14:44.140Z,17.03
2018-02-14T05:17:11.488Z,17.27
2018-02-14T05:19:38.836Z,17.23
2018-02-14T05:22:06.939Z,18.07
2018-02-14T05:24:35.642Z,16.83
2018-02-14T05:27:03.816Z,17.87
2018-02-14T05:29:32.122Z,16.73
2018-02-14T05:31:59.472Z,20.23
2018-02-14T05:34:26.898Z,16.30
2018-02-14T05:36:54.348Z,17.00
2018-02-14T05:39:22.615Z,19.80
2018-02-14T05:41:49.943Z,17.10
2018-02-14T05:44:18.289Z,20.57
2018-02-14T05:46:45.619Z,15.93
2018-02-14T05:49:13.757Z,16.97
2018-02-14T05:51:41.141Z,19.77
2018-02-14T05:54:09.618Z,17.73
2018-02-14T05:56:37.760Z,18.57
2018-02-14T05:59:06.139Z,18.40
2018-02-14T06:01:34.407Z,19.07
2018-02-14T06:04:01.753Z,18.20
2018-02-14T06:06:29.892Z,19.57
2018-02-14T06:08:57.296Z,19.97
2018-02-14T06:11:25.722Z,22.03
2018-02-14T06:13:53.064Z,19.90
2018-02-14T06:16:21.307Z,20.63
2018-02-14T06:18:48.727Z,20.27
2018-02-14T06:21:16.066Z,18.97
2018-02-14T06:23:44.276Z,18.83
2018-02-14T06:26:11.611Z,19.60
2018-02-14T06:28:39.739Z,19.77
2018-02-14T06:31:08.013Z,20.20
2018-02-14T06:33:36.255Z,21.00
2018-02-14T06:36:04.359Z,22.87
2018-02-14T06:38:31.719Z,21.63
2018-02-14T06:40:59.100Z,21.53
2018-02-14T06:43:27.129Z,21.00
2018-02-14T06:45:54.551Z,20.97
2018-02-14T06:48:21.875Z,21.07
2018-02-14T06:50:49.924Z,21.47
2018-02-14T06:53:18.188Z,21.23
2018-02-14T06:55:46.411Z,21.70
2018-02-14T06:58:14.687Z,22.93
2018-02-14T07:00:42.779Z,22.10
2018-02-14T07:03:10.276Z,23.13
2018-02-14T07:05:38.547Z,20.13
2018-02-14T07:08:06.681Z,23.03
2018-02-14T07:10:34.046Z,29.53
2018-02-14T07:13:01.375Z,21.17
2018-02-14T07:15:28.758Z,21.97
2018-02-14T07:17:56.999Z,21.97
2018-02-14T07:20:24.348Z,23.83
2018-02-14T07:22:52.434Z,22.03
2018-02-14T07:25:20.742Z,23.90
2018-02-14T07:27:49.031Z,22.43
2018-02-14T07:30:17.150Z,21.53
2018-02-14T07:32:44.518Z,21.03
2018-02-14T07:35:12.085Z,24.93
2018-02-14T07:37:40.022Z,23.07
2018-02-14T07:40:07.387Z,22.43
2018-02-14T07:42:35.532Z,23.03
2018-02-14T07:45:02.884Z,21.10
2018-02-14T07:47:30.970Z,23.93
2018-02-14T07:49:58.823Z,20.87
2018-02-14T07:52:26.470Z,21.17
2018-02-14T07:54:54.751Z,19.83
2018-02-14T07:57:22.155Z,28.10
2018-02-14T07:59:49.614Z,22.60
2018-02-14T08:02:16.952Z,23.37
2018-02-14T08:04:44.364Z,22.07
2018-02-14T08:07:12.407Z,23.10
2018-02-14T08:09:40.692Z,22.00
2018-02-14T08:12:08.124Z,24.83
2018-02-14T08:14:35.434Z,22.00
2018-02-14T08:17:03.626Z,23.50
2018-02-14T08:19:31.779Z,25.20
2018-02-14T08:21:59.933Z,19.57
2018-02-14T08:24:28.215Z,19.23
2018-02-14T08:26:56.491Z,21.97
2018-02-14T08:29:24.619Z,20.77
2018-02-14T08:31:52.356Z,19.97
2018-02-14T08:34:19.739Z,16.70
2018-02-14T08:36:48.024Z,20.20
2018-02-14T08:39:16.316Z,21.50
2018-02-14T08:41:44.562Z,19.77
2018-02-14T08:44:12.836Z,21.70
2018-02-14T08:46:40.201Z,20.43
2018-02-14T08:49:08.520Z,21.47
2018-02-14T08:51:36.803Z,18.80
2018-02-14T08:54:05.104Z,20.87
2018-02-14T08:56:32.495Z,21.20
2018-02-14T08:59:00.653Z,24.13
2018-02-14T09:01:28.903Z,19.73
2018-02-14T09:03:56.336Z,19.17
2018-02-14T09:06:24.648Z,22.23
2018-02-14T09:08:52.014Z,22.10
2018-02-14T09:11:19.372Z,20.70
2018-02-14T09:13:47.477Z,22.60
2018-02-14T09:16:14.914Z,22.07
2018-02-14T09:18:43.199Z,22.87
2018-02-14T09:21:11.509Z,23.23
2018-02-14T09:23:39.763Z,23.30
2018-02-14T09:26:07.135Z,22.80
2018-02-14T09:28:35.415Z,21.23
2018-02-14T09:31:02.751Z,22.40
2018-02-14T09:33:31.058Z,21.47
2018-02-14T09:35:58.403Z,20.07
2018-02-14T09:38:25.781Z,21.47
2018-02-14T09:40:53.921Z,18.87
2018-02-14T09:43:22.266Z,19.43
2018-02-14T09:45:50.527Z,22.37
2018-02-14T09:48:17.969Z,20.47
2018-02-14T09:50:46.207Z,20.80
2018-02-14T09:53:14.510Z,20.67
2018-02-14T09:55:41.909Z,19.60
2018-02-14T09:58:09.247Z,22.90
2018-02-14T10:00:36.602Z,24.07
2018-02-14T10:03:03.952Z,18.80
2018-02-14T10:05:32.226Z,20.93
2018-02-14T10:07:59.554Z,21.10
2018-02-14T10:10:27.750Z,20.00
2018-02-14T10:12:55.087Z,21.27
2018-02-14T10:15:23.179Z,21.00
2018-02-14T10:17:50.587Z,23.13
2018-02-14T10:20:18.827Z,19.67
2018-02-14T10:22:47.207Z,18.93
2018-02-14T10:25:17.376Z,18.20
2018-02-14T10:27:45.683Z,19.57
2018-02-14T10:30:13.031Z,19.17
2018-02-14T10:32:41.411Z,19.80
2018-02-14T10:35:08.779Z,18.83
2018-02-14T10:37:36.308Z,21.00
2018-02-14T10:40:03.700Z,18.87
2018-02-14T10:42:31.016Z,22.13
2018-02-14T10:44:59.294Z,19.87
2018-02-14T10:47:26.645Z,19.90
2018-02-14T10:49:55.019Z,22.03
2018-02-14T10:52:22.343Z,23.87
2018-02-14T10:54:49.785Z,20.50
2018-02-14T10:57:17.900Z,19.40
2018-02-14T10:59:45.248Z,20.17
2018-02-14T11:02:12.730Z,17.97
2018-02-14T11:04:47.238Z,20.03
2018-02-14T11:07:18.738Z,18.47
2018-02-14T11:09:46.982Z,18.83
2018-02-14T11:12:14.545Z,22.97
2018-02-14T11:14:42.636Z,20.50
2018-02-14T11:17:10.026Z,21.37
2018-02-14T11:19:37.379Z,20.13
2018-02-14T11:22:05.460Z,18.37
2018-02-14T11:24:33.793Z,20.57
2018-02-14T11:27:01.248Z,19.07
2018-02-14T11:29:28.671Z,19.57
2018-02-14T11:31:56.146Z,19.73
2018-02-14T11:34:23.552Z,18.00
2018-02-14T11:36:51.223Z,20.10
2018-02-14T11:39:19.617Z,18.77
2018-02-14T11:41:47.728Z,18.50
2018-02-14T11:44:16.106Z,22.27
2018-02-14T11:46:43.458Z,17.47
2018-02-14T11:49:11.929Z,19.57
2018-02-14T11:51:39.308Z,18.63
2018-02-14T11:54:07.456Z,18.27
2018-02-14T11:56:34.807Z,17.03
2018-02-14T11:59:02.155Z,17.13
2018-02-14T12:01:30.407Z,19.27
2018-02-14T12:03:57.812Z,17.43
2018-02-14T12:06:25.151Z,16.93
2018-02-14T12:08:53.446Z,16.97
2018-02-14T12:11:20.783Z,17.47
2018-02-14T12:13:48.163Z,15.83
2018-02-14T12:16:16.644Z,16.20
2018-02-14T12:18:44.927Z,20.53
2018-02-14T12:21:13.439Z,16.03
2018-02-14T12:23:40.793Z,18.63
2018-02-14T12:26:08.882Z,16.90
2018-02-14T12:28:36.228Z,15.47
2018-02-14T12:31:04.518Z,21.60
2018-02-14T12:33:32.013Z,17.40
2018-02-14T12:36:00.299Z,19.03
2018-02-14T12:38:28.430Z,19.57
2018-02-14T12:40:56.698Z,16.93
2018-02-14T12:43:24.125Z,22.87
2018-02-14T12:45:51.467Z,20.13
2018-02-14T12:48:19.575Z,17.37
2018-02-14T12:50:46.888Z,15.77
2018-02-14T12:53:15.203Z,17.07
2018-02-14T12:55:42.599Z,15.20
2018-02-14T12:58:10.902Z,15.77
2018-02-14T13:00:38.260Z,18.67
2018-02-14T13:03:05.878Z,16.57
2018-02-14T13:05:34.355Z,16.77
2018-02-14T13:08:02.779Z,19.03
2018-02-14T13:10:30.900Z,16.83
2018-02-14T13:12:59.271Z,15.73
2018-02-14T13:15:27.020Z,15.97
2018-02-14T13:17:54.371Z,17.37
2018-02-14T13:20:22.483Z,15.17
2018-02-14T13:22:50.778Z,16.60
2018-02-14T13:25:19.128Z,15.73
2018-02-14T13:27:47.604Z,17.43
2018-02-14T13:30:15.076Z,14.30
2018-02-14T13:32:43.205Z,16.20
2018-02-14T13:35:10.542Z,14.80
2018-02-14T13:37:38.089Z,16.60
2018-02-14T13:40:06.197Z,16.00
2018-02-14T13:42:33.731Z,14.50
2018-02-14T13:45:01.892Z,16.80
2018-02-14T13:47:29.333Z,17.80
2018-02-14T13:49:57.188Z,15.47
2018-02-14T13:52:24.559Z,13.53
2018-02-14T13:54:52.646Z,14.77
2018-02-14T13:57:20.399Z,15.17
2018-02-14T13:59:49.132Z,14.83
2018-02-14T14:02:17.308Z,14.40
2018-02-14T14:04:45.637Z,13.53
2018-02-14T14:07:12.964Z,15.70
2018-02-14T14:09:40.429Z,15.57
2018-02-14T14:12:08.616Z,14.87
2018-02-14T14:14:36.691Z,15.23
2018-02-14T14:17:05.015Z,14.43
2018-02-14T14:19:32.339Z,13.70
2018-02-14T14:22:00.463Z,13.77
2018-02-14T14:24:27.963Z,13.03
2018-02-14T14:26:56.314Z,14.40
2018-02-14T14:29:24.487Z,17.13
2018-02-14T14:31:52.587Z,14.10
2018-02-14T14:34:20.121Z,14.37
2018-02-14T14:36:48.263Z,14.60
2018-02-14T14:39:15.856Z,13.47
2018-02-14T14:41:44.171Z,14.37
2018-02-14T14:44:11.607Z,13.70
2018-02-14T14:46:39.802Z,14.07
2018-02-14T14:49:07.216Z,13.47
2018-02-14T14:51:35.328Z,14.07
2018-02-14T14:54:02.793Z,13.23
2018-02-14T14:56:30.176Z,13.13
2018-02-14T14:58:58.387Z,11.27
2018-02-14T15:01:25.794Z,12.37
2018-02-14T15:03:53.503Z,11.20
2018-02-14T15:06:20.871Z,12.83
2018-02-14T15:08:48.960Z,11.10
2018-02-14T15:11:16.395Z,9.60
2018-02-14T15:13:44.762Z,12.40
2018-02-14T15:16:12.207Z,13.17
2018-02-14T15:18:40.494Z,10.53
2018-02-14T15:21:08.582Z,12.40
2018-02-14T15:23:36.726Z,12.63
2018-02-14T15:26:04.848Z,12.43
2018-02-14T15:28:33.156Z,11.20
2018-02-14T15:31:00.950Z,10.50
2018-02-14T15:33:29.246Z,11.90
2018-02-14T15:35:56.580Z,11.77
2018-02-14T15:38:25.580Z,10.00
2018-02-14T15:40:52.935Z,10.47
2018-02-14T15:43:22.914Z,9.23
2018-02-14T15:45:51.069Z,8.73
2018-02-14T15:48:19.403Z,9.17
2018-02-14T15:50:46.763Z,9.27
2018-02-14T15:53:14.898Z,8.53
2018-02-14T15:55:43.201Z,8.93
2018-02-14T15:58:10.543Z,8.07
2018-02-14T16:00:41.111Z,10.07
2018-02-14T16:03:14.394Z,8.73
2018-02-14T16:05:42.652Z,9.73
2018-02-14T16:08:11.265Z,10.37
2018-02-14T16:10:38.781Z,10.07
2018-02-14T16:13:06.460Z,8.70
2018-02-14T16:15:34.031Z,11.43
2018-02-14T16:18:01.530Z,10.83
2018-02-14T16:20:29.212Z,8.50
2018-02-14T16:22:56.692Z,10.73
2018-02-14T16:25:24.247Z,10.47
2018-02-14T16:27:52.659Z,9.40
2018-02-14T16:30:23.111Z,10.23
2018-02-14T16:32:52.251Z,9.93
2018-02-14T16:35:22.651Z,12.10
2018-02-14T16:37:50.180Z,9.30
2018-02-14T16:40:17.748Z,11.03
2018-02-14T16:42:45.215Z,10.80
2018-02-14T16:45:13.416Z,10.00
2018-02-14T16:47:41.536Z,11.00
2018-02-14T16:50:11.116Z,11.83
2018-02-14T16:52:39.440Z,12.83
2018-02-14T16:55:09.735Z,12.47
2018-02-14T16:57:38.145Z,12.23
2018-02-14T17:00:05.604Z,11.60
2018-02-14T17:02:41.461Z,10.37
2018-02-14T17:05:09.371Z,12.23
2018-02-14T17:07:36.755Z,11.90
2018-02-14T17:10:04.324Z,10.60
2018-02-14T17:12:31.799Z,12.83
2018-02-14T17:15:00.000Z,12.83
2018-02-14T17:17:28.249Z,11.27
2018-02-14T17:19:59.037Z,14.17
2018-02-14T17:22:28.286Z,13.27
2018-02-14T17:24:57.588Z,14.20
2018-02-14T17:27:32.007Z,11.63
2018-02-14T17:29:59.493Z,11.73
2018-02-14T17:32:27.692Z,10.80
2018-02-14T17:34:55.101Z,11.53
2018-02-14T17:37:22.576Z,11.97
2018-02-14T17:39:52.748Z,13.97
2018-02-14T17:42:20.223Z,10.37
2018-02-14T17:44:47.606Z,12.40
2018-02-14T17:47:23.648Z,10.90
2018-02-14T17:49:51.990Z,13.83
2018-02-14T17:52:19.368Z,10.03
2018-02-14T17:54:48.843Z,12.00
2018-02-14T17:57:16.296Z,11.30
2018-02-14T17:59:43.751Z,12.27
2018-02-14T18:02:18.918Z,10.90
2018-02-14T18:04:46.666Z,11.53
2018-02-14T18:07:14.053Z,9.63
2018-02-14T18:09:42.225Z,11.27
2018-02-14T18:12:10.649Z,10.43
2018-02-14T18:14:40.817Z,10.30
2018-02-14T18:17:08.952Z,12.90
2018-02-14T18:19:37.255Z,9.90
2018-02-14T18:22:04.663Z,8.87
2018-02-14T18:24:32.030Z,11.20
2018-02-14T18:27:00.387Z,9.80
2018-02-14T18:29:27.805Z,11.20
2018-02-14T18:31:57.203Z,12.00
2018-02-14T18:34:24.633Z,10.30
2018-02-14T18:36:52.108Z,11.40
2018-02-14T18:39:19.530Z,10.83
2018-02-14T18:41:50.581Z,11.93
2018-02-14T18:44:20.668Z,9.00
2018-02-14T18:46:48.080Z,11.67
2018-02-14T18:49:16.270Z,10.00
2018-02-14T18:51:43.627Z,11.23
2018-02-14T18:54:11.028Z,9.63
2018-02-14T18:56:38.442Z,10.27
2018-02-14T18:59:06.581Z,11.57
2018-02-14T19:01:34.224Z,10.00
2018-02-14T19:04:01.695Z,9.00
2018-02-14T19:06:29.164Z,12.97
2018-02-14T19:08:56.543Z,11.60
2018-02-14T19:11:24.069Z,10.57
2018-02-14T19:13:53.992Z,10.43
2018-02-14T19:16:21.406Z,9.03
2018-02-14T19:18:48.800Z,11.07
2018-02-14T19:21:16.275Z,11.00
2018-02-14T19:23:43.649Z,11.60
2018-02-14T19:26:11.792Z,12.53
2018-02-14T19:28:39.155Z,12.67
2018-02-14T19:31:06.527Z,10.07
2018-02-14T19:33:34.098Z,9.83
2018-02-14T19:36:01.614Z,9.67
2018-02-14T19:38:29.047Z,11.23
2018-02-14T19:40:56.492Z,10.17
2018-02-14T19:43:23.880Z,10.90
2018-02-14T19:45:51.348Z,10.77
2018-02-14T19:48:18.784Z,10.17
2018-02-14T19:50:47.021Z,12.00
2018-02-14T19:53:14.412Z,11.83
2018-02-14T19:55:42.174Z,13.33
2018-02-14T19:58:09.700Z,13.87
2018-02-14T20:00:37.186Z,10.53
2018-02-14T20:03:04.594Z,12.27
2018-02-14T20:05:32.771Z,11.73
2018-02-14T20:08:00.308Z,9.70
2018-02-14T20:10:27.733Z,11.13
2018-02-14T20:12:55.138Z,9.03
2018-02-14T20:15:23.260Z,11.00
2018-02-14T20:17:50.705Z,12.13
2018-02-14T20:20:18.091Z,10.73
2018-02-14T20:22:45.475Z,13.60
2018-02-14T20:25:13.092Z,9.77
2018-02-14T20:27:40.522Z,11.43
2018-02-14T20:30:07.889Z,10.33
2018-02-14T20:32:35.415Z,9.93
2018-02-14T20:35:02.777Z,11.70
2018-02-14T20:37:30.228Z,12.57
2018-02-14T20:39:57.631Z,10.33
2018-02-14T20:42:25.064Z,12.47
2018-02-14T20:44:52.460Z,12.23
2018-02-14T20:47:19.975Z,10.77
2018-02-14T20:49:47.361Z,13.60
2018-02-14T20:52:14.798Z,11.47
2018-02-14T20:54:42.325Z,11.00
2018-02-14T20:57:09.731Z,11.03
2018-02-14T20:59:37.417Z,10.47
2018-02-14T21:02:05.552Z,11.00
2018-02-14T21:04:32.961Z,10.80
2018-02-14T21:07:00.363Z,10.83
2018-02-14T21:09:27.764Z,10.37
2018-02-14T21:11:55.953Z,11.00
2018-02-14T21:14:25.028Z,10.67
2018-02-14T21:16:52.438Z,14.30
2018-02-14T21:19:19.806Z,15.00
2018-02-14T21:21:47.204Z,12.83
2018-02-14T21:24:15.301Z,13.73
2018-02-14T21:26:42.702Z,12.43
2018-02-14T21:29:10.101Z,9.83
2018-02-14T21:31:37.461Z,10.60
2018-02-14T21:34:04.876Z,11.73
2018-02-14T21:36:32.228Z,11.60
2018-02-14T21:38:59.849Z,11.00
2018-02-14T21:41:27.249Z,11.43
2018-02-14T21:43:55.411Z,10.63
2018-02-14T21:46:22.795Z,11.87
2018-02-14T21:48:50.359Z,11.87
2018-02-14T21:51:17.843Z,12.03
2018-02-14T21:53:45.229Z,10.83
2018-02-14T21:56:13.331Z,10.83
2018-02-14T21:58:41.511Z,11.00
2018-02-14T22:01:08.968Z,11.70
2018-02-14T22:03:36.415Z,11.33
2018-02-14T22:06:04.628Z,10.57
2018-02-14T22:08:32.032Z,10.27
2018-02-14T22:10:59.466Z,11.27
2018-02-14T22:13:26.858Z,9.87
2018-02-14T22:15:54.988Z,10.20
2018-02-14T22:18:22.344Z,10.70
2018-02-14T22:20:49.786Z,10.80
2018-02-14T22:23:17.166Z,10.03
2018-02-14T22:25:44.523Z,9.97
2018-02-14T22:28:12.044Z,10.33
2018-02-14T22:30:39.433Z,10.13
2018-02-14T22:33:06.833Z,12.17
2018-02-14T22:35:34.159Z,10.53
2018-02-14T22:38:01.723Z,11.83
2018-02-14T22:40:29.179Z,11.50
2018-02-14T22:42:57.456Z,10.87
2018-02-14T22:45:24.920Z,10.73
2018-02-14T22:47:52.305Z,10.63
2018-02-14T22:50:19.690Z,12.40
2018-02-14T22:52:47.039Z,11.07
2018-02-14T22:55:14.567Z,9.13
2018-02-14T22:57:42.882Z,9.43
2018-02-14T23:00:10.548Z,10.63
2018-02-14T23:02:38.734Z,11.97
2018-02-14T23:05:06.909Z,9.10
2018-02-14T23:07:35.038Z,10.77
2018-02-14T23:10:02.616Z,11.80
2018-02-14T23:12:29.997Z,10.97
2018-02-14T23:14:58.263Z,11.93
2018-02-14T23:17:26.571Z,11.50
2018-02-14T23:19:54.667Z,12.60
2018-02-14T23:22:22.807Z,11.40
2018-02-14T23:24:50.143Z,13.17
2018-02-14T23:27:18.264Z,14.27
2018-02-14T23:29:45.644Z,12.33
2018-02-14T23:32:13.218Z,13.30
2018-02-14T23:34:41.406Z,16.37
2018-02-14T23:37:09.775Z,13.27
2018-02-14T23:39:37.175Z,12.90
2018-02-14T23:42:05.455Z,15.37
2018-02-14T23:44:32.791Z,13.60
2018-02-14T23:47:01.235Z,13.17
2018-02-14T23:49:29.519Z,15.97
2018-02-14T23:51:56.877Z,14.70
2018-02-14T23:54:24.214Z,15.80
2018-02-14T23:56:51.580Z,14.00
2018-02-14T23:59:18.886Z,16.70
